createdAt,value
2018-10-12T00:00:46.483Z,12.90
2018-10-12T00:03:14.979Z,12.90
2018-10-12T00:05:43.706Z,12.80
2018-10-12T00:08:12.330Z,12.80
2018-10-12T00:10:40.851Z,12.80
2018-10-12T00:13:09.357Z,12.80
2018-10-12T00:15:37.870Z,12.70
2018-10-12T00:18:06.369Z,12.70
2018-10-12T00:20:34.904Z,12.70
2018-10-12T00:23:03.410Z,12.70
2018-10-12T00:25:31.976Z,12.70
2018-10-12T00:28:00.505Z,12.70
2018-10-12T00:30:29.016Z,12.70
2018-10-12T00:32:57.507Z,12.60
2018-10-12T00:35:26.034Z,12.60
2018-10-12T00:37:54.530Z,12.70
2018-10-12T00:40:23.072Z,12.50
2018-10-12T00:42:52.413Z,12.50
2018-10-12T00:45:20.956Z,12.50
2018-10-12T00:47:54.873Z,12.50
2018-10-12T00:50:23.393Z,12.50
2018-10-12T00:52:51.888Z,12.40
2018-10-12T00:55:20.430Z,12.40
2018-10-12T00:57:48.937Z,12.40
2018-10-12T01:00:17.529Z,12.50
2018-10-12T01:02:46.123Z,12.60
2018-10-12T01:05:14.655Z,12.60
2018-10-12T01:07:43.181Z,12.60
2018-10-12T01:10:11.717Z,12.60
2018-10-12T01:12:40.274Z,12.50
2018-10-12T01:15:09.058Z,12.50
2018-10-12T01:17:38.141Z,12.60
2018-10-12T01:20:07.355Z,12.60
2018-10-12T01:22:36.053Z,12.60
2018-10-12T01:25:06.132Z,12.70
2018-10-12T01:27:34.850Z,12.70
2018-10-12T01:30:04.265Z,12.70
2018-10-12T01:32:38.194Z,12.60
2018-10-12T01:35:06.726Z,12.60
2018-10-12T01:37:35.325Z,12.70
2018-10-12T01:40:04.149Z,12.80
2018-10-12T01:42:32.713Z,12.80
2018-10-12T01:45:01.299Z,12.80
2018-10-12T01:47:29.872Z,12.80
2018-10-12T01:49:58.413Z,12.80
2018-10-12T01:52:26.977Z,12.90
2018-10-12T01:54:55.513Z,12.80
2018-10-12T01:57:24.081Z,12.80
2018-10-12T01:59:52.654Z,12.80
2018-10-12T02:02:21.263Z,12.80
2018-10-12T02:04:49.821Z,12.70
2018-10-12T02:07:18.392Z,12.70
2018-10-12T02:09:46.950Z,12.50
2018-10-12T02:12:15.530Z,12.60
2018-10-12T02:14:44.065Z,12.60
2018-10-12T02:17:12.622Z,12.60
2018-10-12T02:19:41.153Z,12.60
2018-10-12T02:22:09.705Z,12.60
2018-10-12T02:24:38.281Z,12.60
2018-10-12T02:27:06.918Z,12.50
2018-10-12T02:29:35.456Z,12.50
2018-10-12T02:32:04.081Z,12.40
2018-10-12T02:34:32.632Z,12.40
2018-10-12T02:37:01.202Z,12.40
2018-10-12T02:39:29.741Z,12.40
2018-10-12T02:41:58.358Z,12.40
2018-10-12T02:44:26.901Z,12.40
2018-10-12T02:46:55.462Z,12.40
2018-10-12T02:49:24.033Z,12.40
2018-10-12T02:51:52.568Z,12.30
2018-10-12T02:54:21.153Z,12.30
2018-10-12T02:56:49.766Z,12.30
2018-10-12T02:59:18.333Z,12.30
2018-10-12T03:01:46.890Z,12.30
2018-10-12T03:04:15.465Z,12.30
2018-10-12T03:06:44.005Z,12.20
2018-10-12T03:09:13.266Z,12.30
2018-10-12T03:11:42.130Z,12.30
2018-10-12T03:14:10.736Z,12.20
2018-10-12T03:16:39.294Z,12.20
2018-10-12T03:19:07.893Z,12.20
2018-10-12T03:21:36.442Z,12.00
2018-10-12T03:24:05.029Z,12.10
2018-10-12T03:26:33.557Z,12.10
2018-10-12T03:29:02.177Z,12.10
2018-10-12T03:31:30.770Z,12.00
2018-10-12T03:33:59.410Z,12.00
2018-10-12T03:36:28.346Z,12.00
2018-10-12T03:38:56.915Z,12.00
2018-10-12T03:41:25.485Z,12.00
2018-10-12T03:43:54.091Z,11.90
2018-10-12T03:46:22.665Z,11.80
2018-10-12T03:48:51.238Z,11.90
2018-10-12T03:51:19.799Z,11.90
2018-10-12T03:53:48.370Z,11.90
2018-10-12T03:56:16.933Z,12.00
2018-10-12T03:58:45.493Z,12.00
2018-10-12T04:01:14.031Z,12.00
2018-10-12T04:03:42.590Z,12.20
2018-10-12T04:06:11.139Z,12.20
2018-10-12T04:08:39.698Z,12.30
2018-10-12T04:11:08.941Z,12.30
2018-10-12T04:13:37.479Z,12.30
2018-10-12T04:16:06.058Z,12.30
2018-10-12T04:18:34.577Z,12.40
2018-10-12T04:21:03.146Z,12.40
2018-10-12T04:23:31.725Z,12.40
2018-10-12T04:26:00.323Z,12.50
2018-10-12T04:28:28.878Z,12.50
2018-10-12T04:30:57.441Z,12.40
2018-10-12T04:33:26.474Z,12.40
2018-10-12T04:35:55.254Z,12.30
2018-10-12T04:38:23.867Z,12.30
2018-10-12T04:41:02.680Z,12.40
2018-10-12T04:43:31.849Z,12.50
2018-10-12T04:46:01.470Z,12.60
2018-10-12T04:48:30.915Z,12.60
2018-10-12T04:50:59.949Z,12.60
2018-10-12T04:53:28.538Z,12.50
2018-10-12T04:55:57.130Z,12.60
2018-10-12T04:58:26.105Z,12.60
2018-10-12T05:00:54.724Z,12.60
2018-10-12T05:03:23.317Z,12.50
2018-10-12T05:05:51.929Z,12.50
2018-10-12T05:08:20.501Z,12.60
2018-10-12T05:10:49.082Z,12.60
2018-10-12T05:13:17.649Z,12.70
2018-10-12T05:15:46.236Z,12.60
2018-10-12T05:18:16.450Z,12.50
2018-10-12T05:20:45.019Z,12.60
2018-10-12T05:23:14.138Z,12.70
2018-10-12T05:25:53.008Z,12.70
2018-10-12T05:28:22.733Z,12.70
2018-10-12T05:30:51.446Z,12.60
2018-10-12T05:33:20.101Z,12.60
2018-10-12T05:35:48.828Z,12.50
2018-10-12T05:38:17.471Z,12.50
2018-10-12T05:40:46.193Z,12.50
2018-10-12T05:43:16.287Z,12.40
2018-10-12T05:45:45.633Z,12.40
2018-10-12T05:48:25.697Z,12.30
2018-10-12T05:50:54.560Z,12.20
2018-10-12T05:53:23.732Z,12.20
2018-10-12T05:55:52.834Z,12.30
2018-10-12T05:58:21.790Z,12.30
2018-10-12T06:00:55.247Z,12.20
2018-10-12T06:03:24.014Z,12.20
2018-10-12T06:05:52.735Z,12.20
2018-10-12T06:08:21.412Z,12.20
2018-10-12T06:10:50.285Z,12.20
2018-10-12T06:13:19.159Z,12.10
2018-10-12T06:15:47.755Z,12.10
2018-10-12T06:18:16.373Z,12.20
2018-10-12T06:20:44.946Z,12.20
2018-10-12T06:23:13.601Z,12.10
2018-10-12T06:25:42.177Z,12.10
2018-10-12T06:28:11.007Z,12.20
2018-10-12T06:30:39.616Z,12.20
2018-10-12T06:33:08.242Z,12.20
2018-10-12T06:35:36.773Z,12.30
2018-10-12T06:38:05.455Z,12.40
2018-10-12T06:40:34.433Z,12.40
2018-10-12T06:43:03.287Z,12.40
2018-10-12T06:45:32.042Z,12.40
2018-10-12T06:48:00.649Z,12.50
2018-10-12T06:50:29.202Z,12.60
2018-10-12T06:52:57.847Z,12.70
2018-10-12T06:55:26.491Z,12.70
2018-10-12T06:57:55.161Z,12.70
2018-10-12T07:00:24.253Z,12.80
2018-10-12T07:02:54.180Z,13.00
2018-10-12T07:05:22.899Z,13.00
2018-10-12T07:07:52.099Z,13.10
2018-10-12T07:10:20.677Z,13.20
2018-10-12T07:12:49.276Z,13.20
2018-10-12T07:15:19.578Z,13.30
2018-10-12T07:17:52.391Z,13.40
2018-10-12T07:20:21.213Z,13.50
2018-10-12T07:22:49.800Z,13.50
2018-10-12T07:25:18.437Z,13.70
2018-10-12T07:27:47.163Z,13.80
2018-10-12T07:30:16.513Z,13.80
2018-10-12T07:32:45.166Z,13.80
2018-10-12T07:35:13.854Z,14.00
2018-10-12T07:37:42.509Z,13.90
2018-10-12T07:40:12.990Z,14.10
2018-10-12T07:42:41.628Z,14.30
2018-10-12T07:45:10.200Z,14.30
2018-10-12T07:47:38.921Z,14.40
2018-10-12T07:50:09.162Z,14.60
2018-10-12T07:52:37.734Z,14.70
2018-10-12T07:55:06.323Z,14.80
2018-10-12T07:57:34.891Z,14.80
2018-10-12T08:00:03.573Z,15.00
2018-10-12T08:02:32.190Z,15.10
2018-10-12T08:05:00.958Z,15.20
2018-10-12T08:07:29.558Z,15.40
2018-10-12T08:09:58.230Z,15.50
2018-10-12T08:12:26.863Z,15.60
2018-10-12T08:14:55.453Z,15.70
2018-10-12T08:17:24.050Z,15.80
2018-10-12T08:19:52.772Z,16.00
2018-10-12T08:22:21.336Z,16.10
2018-10-12T08:24:49.971Z,16.40
2018-10-12T08:27:18.514Z,16.60
2018-10-12T08:29:47.114Z,16.80
2018-10-12T08:32:15.758Z,16.90
2018-10-12T08:34:44.523Z,17.10
2018-10-12T08:37:13.066Z,17.20
2018-10-12T08:39:41.644Z,17.40
2018-10-12T08:42:12.427Z,17.70
2018-10-12T08:44:41.061Z,17.80
2018-10-12T08:47:09.661Z,17.90
2018-10-12T08:49:38.941Z,18.30
2018-10-12T08:52:09.156Z,18.50
2018-10-12T08:54:37.846Z,18.60
2018-10-12T08:57:06.451Z,18.60
2018-10-12T08:59:35.042Z,18.70
2018-10-12T09:02:03.574Z,18.80
2018-10-12T09:04:32.790Z,19.00
2018-10-12T09:07:01.438Z,19.10
2018-10-12T09:09:30.139Z,19.10
2018-10-12T09:12:00.849Z,19.30
2018-10-12T09:14:29.798Z,19.50
2018-10-12T09:16:58.393Z,19.50
2018-10-12T09:19:27.062Z,19.70
2018-10-12T09:21:55.668Z,19.80
2018-10-12T09:24:24.225Z,19.80
2018-10-12T09:26:52.819Z,19.80
2018-10-12T09:29:21.390Z,20.00
2018-10-12T09:31:49.985Z,20.20
2018-10-12T09:34:18.594Z,20.30
2018-10-12T09:36:47.170Z,20.40
2018-10-12T09:39:15.757Z,20.80
2018-10-12T09:41:44.393Z,20.80
2018-10-12T09:44:12.951Z,20.90
2018-10-12T09:46:41.538Z,21.00
2018-10-12T09:49:10.126Z,21.00
2018-10-12T09:51:39.297Z,21.20
2018-10-12T09:54:09.990Z,21.10
2018-10-12T09:56:38.993Z,21.20
2018-10-12T09:59:07.847Z,21.30
2018-10-12T10:01:41.698Z,21.30
2018-10-12T10:04:16.235Z,21.40
2018-10-12T10:06:44.883Z,21.70
2018-10-12T10:09:14.146Z,21.70
2018-10-12T10:11:42.906Z,21.70
2018-10-12T10:14:11.926Z,21.70
2018-10-12T10:16:40.505Z,21.70
2018-10-12T10:19:09.087Z,21.70
2018-10-12T10:21:37.685Z,21.70
2018-10-12T10:24:06.469Z,21.80
2018-10-12T10:26:35.033Z,21.90
2018-10-12T10:29:03.622Z,22.00
2018-10-12T10:31:32.244Z,22.00
2018-10-12T10:34:00.799Z,22.20
2018-10-12T10:36:29.396Z,22.20
2018-10-12T10:38:58.186Z,22.30
2018-10-12T10:41:26.759Z,22.20
2018-10-12T10:43:55.343Z,22.30
2018-10-12T10:46:24.084Z,22.40
2018-10-12T10:48:52.674Z,22.40
2018-10-12T10:51:21.287Z,22.40
2018-10-12T10:53:49.894Z,22.50
2018-10-12T10:56:18.991Z,22.50
2018-10-12T10:58:47.545Z,22.50
2018-10-12T11:01:16.133Z,22.60
2018-10-12T11:03:44.669Z,22.70
2018-10-12T11:06:13.299Z,22.90
2018-10-12T11:08:41.801Z,22.80
2018-10-12T11:11:10.400Z,22.90
2018-10-12T11:13:38.944Z,22.80
2018-10-12T11:16:07.622Z,22.90
2018-10-12T11:18:36.182Z,23.00
2018-10-12T11:21:04.770Z,22.90
2018-10-12T11:23:33.298Z,22.90
2018-10-12T11:26:01.886Z,23.00
2018-10-12T11:28:30.433Z,23.00
2018-10-12T11:30:58.989Z,23.00
2018-10-12T11:33:27.512Z,23.10
2018-10-12T11:35:56.046Z,23.20
2018-10-12T11:38:24.634Z,23.30
2018-10-12T11:40:53.186Z,23.30
2018-10-12T11:43:28.202Z,23.30
2018-10-12T11:45:57.134Z,23.30
2018-10-12T11:48:25.701Z,23.40
2018-10-12T11:50:54.247Z,23.40
2018-10-12T11:53:22.865Z,23.40
2018-10-12T11:55:51.401Z,23.20
2018-10-12T11:58:19.999Z,23.30
2018-10-12T12:00:48.603Z,23.40
2018-10-12T12:03:17.361Z,23.40
2018-10-12T12:05:45.933Z,23.40
2018-10-12T12:08:14.521Z,23.30
2018-10-12T12:10:43.877Z,23.40
2018-10-12T12:13:12.555Z,23.40
2018-10-12T12:15:41.589Z,23.40
2018-10-12T12:18:10.188Z,23.50
2018-10-12T12:20:38.772Z,23.60
2018-10-12T12:23:07.590Z,23.70
2018-10-12T12:25:36.345Z,23.70
2018-10-12T12:28:05.822Z,23.60
2018-10-12T12:30:34.397Z,23.60
2018-10-12T12:33:03.024Z,23.70
2018-10-12T12:35:33.162Z,23.70
2018-10-12T12:38:01.693Z,23.80
2018-10-12T12:40:30.304Z,23.60
2018-10-12T12:42:59.602Z,23.60
2018-10-12T12:45:28.155Z,23.50
2018-10-12T12:47:56.856Z,23.50
2018-10-12T12:50:25.637Z,23.60
2018-10-12T12:52:54.276Z,23.80
2018-10-12T12:55:22.831Z,23.80
2018-10-12T12:57:51.586Z,23.70
2018-10-12T13:00:20.263Z,23.70
2018-10-12T13:02:48.886Z,23.70
2018-10-12T13:05:17.446Z,23.60
2018-10-12T13:07:46.025Z,23.60
2018-10-12T13:10:14.593Z,23.70
2018-10-12T13:12:43.181Z,23.70
2018-10-12T13:15:11.794Z,23.80
2018-10-12T13:17:40.402Z,23.70
2018-10-12T13:20:08.985Z,23.60
2018-10-12T13:22:37.510Z,23.80
2018-10-12T13:25:06.360Z,23.80
2018-10-12T13:27:34.907Z,23.90
2018-10-12T13:30:03.506Z,23.90
2018-10-12T13:32:32.803Z,23.90
2018-10-12T13:35:01.407Z,23.80
2018-10-12T13:37:29.966Z,23.80
2018-10-12T13:39:58.564Z,23.70
2018-10-12T13:42:27.077Z,23.60
2018-10-12T13:44:55.654Z,23.60
2018-10-12T13:47:24.178Z,23.50
2018-10-12T13:49:52.750Z,23.50
2018-10-12T13:52:21.292Z,23.50
2018-10-12T13:54:49.848Z,23.50
2018-10-12T13:57:18.405Z,23.40
2018-10-12T13:59:46.966Z,23.50
2018-10-12T14:02:15.486Z,23.50
2018-10-12T14:04:44.112Z,23.50
2018-10-12T14:07:12.669Z,23.60
2018-10-12T14:09:41.226Z,23.80
2018-10-12T14:12:09.786Z,23.70
2018-10-12T14:14:38.349Z,23.60
2018-10-12T14:17:07.026Z,23.60
2018-10-12T14:19:35.585Z,23.70
2018-10-12T14:22:04.134Z,23.70
2018-10-12T14:24:32.706Z,23.80
2018-10-12T14:27:01.252Z,23.90
2018-10-12T14:29:29.825Z,23.90
2018-10-12T14:31:58.362Z,23.90
2018-10-12T14:34:27.137Z,23.90
2018-10-12T14:36:55.667Z,23.80
2018-10-12T14:39:24.258Z,23.80
2018-10-12T14:41:52.805Z,23.70
2018-10-12T14:44:21.620Z,23.80
2018-10-12T14:46:50.168Z,23.60
2018-10-12T14:49:18.701Z,23.60
2018-10-12T14:51:47.343Z,23.70
2018-10-12T14:54:15.822Z,23.70
2018-10-12T14:56:44.445Z,23.50
2018-10-12T14:59:12.987Z,23.50
2018-10-12T15:01:41.870Z,23.60
2018-10-12T15:04:10.397Z,23.40
2018-10-12T15:06:39.004Z,23.10
2018-10-12T15:09:10.465Z,23.00
2018-10-12T15:11:39.050Z,22.90
2018-10-12T15:14:07.611Z,22.90
2018-10-12T15:16:36.186Z,22.70
2018-10-12T15:19:04.817Z,22.60
2018-10-12T15:21:33.462Z,22.40
2018-10-12T15:24:02.282Z,22.30
2018-10-12T15:26:30.865Z,22.30
2018-10-12T15:28:59.545Z,22.20
2018-10-12T15:31:28.141Z,22.00
2018-10-12T15:33:56.678Z,21.90
2018-10-12T15:36:25.328Z,21.80
2018-10-12T15:38:53.878Z,21.70
2018-10-12T15:41:22.474Z,21.60
2018-10-12T15:43:51.055Z,21.50
2018-10-12T15:46:19.653Z,21.40
2018-10-12T15:48:48.193Z,21.30
2018-10-12T15:51:16.879Z,21.20
2018-10-12T15:53:45.349Z,21.10
2018-10-12T15:56:13.983Z,21.00
2018-10-12T15:58:42.515Z,21.00
2018-10-12T16:01:11.098Z,21.00
2018-10-12T16:03:39.650Z,20.90
2018-10-12T16:06:08.256Z,21.00
2018-10-12T16:08:36.850Z,21.00
2018-10-12T16:11:05.486Z,20.70
2018-10-12T16:13:34.158Z,20.60
2018-10-12T16:16:02.704Z,20.50
2018-10-12T16:18:31.304Z,20.50
2018-10-12T16:20:59.857Z,20.40
2018-10-12T16:23:28.436Z,20.30
2018-10-12T16:26:15.577Z,20.20
2018-10-12T16:28:44.235Z,20.10
2018-10-12T16:31:12.786Z,19.90
2018-10-12T16:33:41.367Z,19.80
2018-10-12T16:36:09.968Z,19.80
2018-10-12T16:38:38.585Z,19.70
2018-10-12T16:41:07.785Z,19.70
2018-10-12T16:43:36.357Z,19.70
2018-10-12T16:46:04.914Z,19.60
2018-10-12T16:48:33.527Z,19.50
2018-10-12T16:51:02.065Z,19.40
2018-10-12T16:53:30.675Z,19.40
2018-10-12T16:55:59.229Z,19.20
2018-10-12T16:58:27.809Z,19.10
2018-10-12T17:00:56.336Z,19.10
2018-10-12T17:03:24.900Z,19.00
2018-10-12T17:05:53.454Z,18.90
2018-10-12T17:08:22.043Z,18.90
2018-10-12T17:10:50.594Z,18.70
2018-10-12T17:13:19.181Z,18.70
2018-10-12T17:15:47.731Z,18.70
2018-10-12T17:18:16.362Z,18.60
2018-10-12T17:20:44.884Z,18.40
2018-10-12T17:23:13.453Z,18.30
2018-10-12T17:25:42.026Z,18.20
2018-10-12T17:28:10.605Z,18.20
2018-10-12T17:30:39.138Z,18.20
2018-10-12T17:33:07.726Z,18.10
2018-10-12T17:35:36.385Z,18.00
2018-10-12T17:38:04.957Z,18.00
2018-10-12T17:40:33.509Z,18.00
2018-10-12T17:43:02.120Z,17.90
2018-10-12T17:45:30.659Z,17.80
2018-10-12T17:47:59.293Z,17.80
2018-10-12T17:50:27.857Z,17.70
2018-10-12T17:52:56.438Z,17.60
2018-10-12T17:55:24.990Z,17.60
2018-10-12T17:57:53.573Z,17.60
2018-10-12T18:00:22.543Z,17.50
2018-10-12T18:02:51.046Z,17.60
2018-10-12T18:05:19.585Z,17.50
2018-10-12T18:07:48.165Z,17.40
2018-10-12T18:10:16.751Z,17.30
2018-10-12T18:12:45.329Z,17.20
2018-10-12T18:15:13.887Z,17.20
2018-10-12T18:17:42.593Z,17.00
2018-10-12T18:20:12.069Z,17.00
2018-10-12T18:22:40.649Z,17.00
2018-10-12T18:25:09.340Z,17.10
2018-10-12T18:27:37.861Z,17.00
2018-10-12T18:30:06.785Z,16.90
2018-10-12T18:32:35.314Z,16.90
2018-10-12T18:35:03.925Z,16.80
2018-10-12T18:37:32.471Z,16.80
2018-10-12T18:40:01.024Z,16.70
2018-10-12T18:42:29.578Z,16.70
2018-10-12T18:44:58.145Z,16.60
2018-10-12T18:47:26.690Z,16.60
2018-10-12T18:49:55.238Z,16.50
2018-10-12T18:52:23.765Z,16.50
2018-10-12T18:54:52.321Z,16.50
2018-10-12T18:57:20.849Z,16.40
2018-10-12T18:59:49.496Z,16.50
2018-10-12T19:02:17.995Z,16.30
2018-10-12T19:04:46.678Z,16.30
2018-10-12T19:07:15.140Z,16.20
2018-10-12T19:09:43.698Z,16.30
2018-10-12T19:12:12.244Z,16.20
2018-10-12T19:14:40.790Z,16.20
2018-10-12T19:17:09.341Z,16.10
2018-10-12T19:19:37.994Z,16.10
2018-10-12T19:22:06.582Z,16.10
2018-10-12T19:24:35.166Z,16.00
2018-10-12T19:27:03.847Z,16.00
2018-10-12T19:29:32.399Z,15.90
2018-10-12T19:32:00.945Z,15.90
2018-10-12T19:34:29.545Z,15.90
2018-10-12T19:36:58.386Z,15.80
2018-10-12T19:39:26.945Z,15.80
2018-10-12T19:41:55.469Z,15.70
2018-10-12T19:44:24.021Z,15.70
2018-10-12T19:46:52.546Z,15.80
2018-10-12T19:49:21.125Z,15.80
2018-10-12T19:51:49.646Z,15.80
2018-10-12T19:54:18.203Z,15.80
2018-10-12T19:56:46.785Z,15.70
2018-10-12T19:59:15.424Z,15.70
2018-10-12T20:01:43.947Z,15.60
2018-10-12T20:04:12.520Z,15.50
2018-10-12T20:06:41.084Z,15.50
2018-10-12T20:09:11.247Z,15.50
2018-10-12T20:11:40.442Z,15.50
2018-10-12T20:14:09.520Z,15.40
2018-10-12T20:16:39.365Z,15.40
2018-10-12T20:19:08.312Z,15.50
2018-10-12T20:21:36.860Z,15.40
2018-10-12T20:24:05.484Z,15.40
2018-10-12T20:26:34.009Z,15.30
2018-10-12T20:29:02.533Z,15.30
2018-10-12T20:31:31.118Z,15.20
2018-10-12T20:33:59.710Z,15.10
2018-10-12T20:36:28.502Z,15.10
2018-10-12T20:38:57.143Z,15.20
2018-10-12T20:41:25.655Z,15.10
2018-10-12T20:43:54.194Z,15.10
2018-10-12T20:46:22.833Z,15.10
2018-10-12T20:48:51.390Z,15.10
2018-10-12T20:51:19.966Z,15.00
2018-10-12T20:53:48.528Z,14.90
2018-10-12T20:56:17.122Z,14.90
2018-10-12T20:58:45.654Z,14.90
2018-10-12T21:01:14.236Z,14.80
2018-10-12T21:03:42.787Z,14.80
2018-10-12T21:06:11.354Z,14.70
2018-10-12T21:08:39.971Z,14.70
2018-10-12T21:11:08.538Z,14.70
2018-10-12T21:13:37.084Z,14.80
2018-10-12T21:16:05.682Z,14.80
2018-10-12T21:18:34.219Z,14.80
2018-10-12T21:21:02.841Z,14.80
2018-10-12T21:23:31.918Z,14.70
2018-10-12T21:26:00.519Z,14.70
2018-10-12T21:28:29.077Z,14.60
2018-10-12T21:30:57.642Z,14.70
2018-10-12T21:33:26.177Z,14.70
2018-10-12T21:35:54.750Z,14.70
2018-10-12T21:38:23.284Z,14.60
2018-10-12T21:40:51.873Z,14.50
2018-10-12T21:43:20.409Z,14.60
2018-10-12T21:45:48.997Z,14.60
2018-10-12T21:48:17.794Z,14.50
2018-10-12T21:50:46.325Z,14.50
2018-10-12T21:53:14.918Z,14.60
2018-10-12T21:55:43.467Z,14.50
2018-10-12T21:58:12.046Z,14.50
2018-10-12T22:00:40.607Z,14.40
2018-10-12T22:03:09.189Z,14.40
2018-10-12T22:05:37.742Z,14.40
2018-10-12T22:08:06.377Z,14.40
2018-10-12T22:10:34.914Z,14.30
2018-10-12T22:13:03.490Z,14.20
2018-10-12T22:15:32.142Z,14.10
2018-10-12T22:18:00.717Z,14.00
2018-10-12T22:20:29.276Z,14.00
2018-10-12T22:22:57.865Z,14.10
2018-10-12T22:25:26.433Z,14.10
2018-10-12T22:27:54.982Z,14.10
2018-10-12T22:30:23.510Z,14.20
2018-10-12T22:32:52.141Z,14.20
2018-10-12T22:35:20.674Z,14.10
2018-10-12T22:37:49.226Z,14.10
2018-10-12T22:40:17.749Z,14.10
2018-10-12T22:42:46.395Z,14.00
2018-10-12T22:45:14.915Z,13.90
2018-10-12T22:47:43.469Z,14.00
2018-10-12T22:50:12.022Z,13.90
2018-10-12T22:52:40.565Z,13.90
2018-10-12T22:55:09.104Z,13.90
2018-10-12T22:57:37.665Z,13.80
2018-10-12T23:00:06.255Z,13.70
2018-10-12T23:02:34.814Z,13.80
2018-10-12T23:05:03.359Z,13.70
2018-10-12T23:07:32.197Z,13.70
2018-10-12T23:10:00.717Z,13.60
2018-10-12T23:12:29.271Z,13.60
2018-10-12T23:14:57.813Z,13.60
2018-10-12T23:17:26.365Z,13.60
2018-10-12T23:19:54.895Z,13.60
2018-10-12T23:22:23.462Z,13.60
2018-10-12T23:24:52.026Z,13.40
2018-10-12T23:27:20.573Z,13.40
2018-10-12T23:29:49.137Z,13.40
2018-10-12T23:32:17.693Z,13.50
2018-10-12T23:34:46.261Z,13.50
2018-10-12T23:37:14.840Z,13.50
2018-10-12T23:39:43.410Z,13.40
2018-10-12T23:42:11.946Z,13.40
2018-10-12T23:44:40.505Z,13.40
2018-10-12T23:47:09.092Z,13.30
2018-10-12T23:49:37.682Z,13.30
2018-10-12T23:52:06.377Z,13.30
2018-10-12T23:54:34.940Z,13.20
2018-10-12T23:57:03.501Z,13.30
2018-10-12T23:59:32.066Z,13.20
